createdAt,value
2022-10-20T00:01:05.508Z,5.28
2022-10-20T00:03:32.310Z,5.63
2022-10-20T00:06:09.115Z,5.63
2022-10-20T00:08:35.809Z,5.72
2022-10-20T00:11:02.682Z,5.59
2022-10-20T00:13:30.068Z,5.57
2022-10-20T00:15:57.962Z,5.52
2022-10-20T00:18:25.485Z,5.30
2022-10-20T00:20:52.490Z,5.35
2022-10-20T00:23:20.026Z,5.39
2022-10-20T00:25:46.770Z,5.30
2022-10-20T00:28:13.304Z,5.10
2022-10-20T00:30:40.232Z,5.08
2022-10-20T00:33:06.956Z,5.20
2022-10-20T00:35:33.773Z,5.26
2022-10-20T00:38:00.376Z,5.15
2022-10-20T00:40:27.008Z,5.17
2022-10-20T00:42:53.613Z,4.78
2022-10-20T00:45:22.337Z,4.38
2022-10-20T00:47:55.865Z,4.39
2022-10-20T00:50:22.449Z,4.63
2022-10-20T00:52:50.127Z,4.85
2022-10-20T00:55:25.533Z,4.82
2022-10-20T00:57:54.458Z,4.90
2022-10-20T01:00:21.568Z,4.97
2022-10-20T01:02:50.951Z,4.94
2022-10-20T01:05:21.115Z,4.91
2022-10-20T01:07:47.821Z,4.79
2022-10-20T01:10:15.013Z,4.86
2022-10-20T01:12:41.583Z,4.77
2022-10-20T01:15:08.415Z,4.92
2022-10-20T01:17:54.982Z,4.60
2022-10-20T01:20:47.931Z,4.76
2022-10-20T01:23:35.344Z,4.88
2022-10-20T01:26:14.278Z,4.74
2022-10-20T01:29:05.877Z,4.78
2022-10-20T01:31:50.635Z,4.94
2022-10-20T01:34:53.185Z,4.90
2022-10-20T01:37:34.356Z,4.86
2022-10-20T01:40:29.410Z,5.01
2022-10-20T01:43:01.746Z,4.96
2022-10-20T01:45:32.992Z,5.01
2022-10-20T01:48:03.286Z,5.10
2022-10-20T01:50:31.363Z,4.88
2022-10-20T01:52:58.819Z,4.90
2022-10-20T01:55:26.018Z,4.81
2022-10-20T01:58:14.583Z,4.71
2022-10-20T02:00:43.277Z,4.76
2022-10-20T02:03:24.360Z,4.56
2022-10-20T02:06:24.612Z,4.56
2022-10-20T02:08:54.085Z,4.58
2022-10-20T02:11:27.551Z,4.46
2022-10-20T02:13:57.274Z,4.52
2022-10-20T02:16:37.810Z,4.56
2022-10-20T02:19:07.716Z,4.41
2022-10-20T02:21:34.312Z,4.49
2022-10-20T02:24:05.142Z,4.42
2022-10-20T02:26:34.004Z,4.42
2022-10-20T02:29:23.296Z,4.36
2022-10-20T02:31:49.872Z,4.55
2022-10-20T02:34:16.657Z,4.74
2022-10-20T02:36:43.727Z,4.72
2022-10-20T02:39:10.515Z,4.88
2022-10-20T02:41:38.305Z,4.82
2022-10-20T02:44:05.202Z,4.87
2022-10-20T02:46:32.319Z,4.77
2022-10-20T02:48:59.031Z,4.87
2022-10-20T02:51:25.723Z,4.86
2022-10-20T02:53:54.752Z,4.81
2022-10-20T02:56:25.390Z,4.82
2022-10-20T02:58:54.309Z,4.74
2022-10-20T03:01:22.442Z,4.57
2022-10-20T03:03:49.174Z,4.67
2022-10-20T03:06:16.487Z,4.55
2022-10-20T03:08:44.086Z,4.47
2022-10-20T03:11:10.734Z,4.31
2022-10-20T03:13:37.339Z,4.12
2022-10-20T03:16:04.090Z,3.99
2022-10-20T03:18:30.727Z,4.12
2022-10-20T03:20:57.402Z,4.26
2022-10-20T03:23:24.153Z,4.34
2022-10-20T03:25:50.767Z,4.18
2022-10-20T03:28:17.363Z,4.14
2022-10-20T03:30:44.163Z,4.08
2022-10-20T03:33:11.593Z,4.03
2022-10-20T03:35:38.315Z,4.14
2022-10-20T03:38:04.961Z,4.25
2022-10-20T03:40:31.629Z,4.20
2022-10-20T03:42:58.235Z,4.15
2022-10-20T03:45:24.951Z,4.13
2022-10-20T03:47:51.538Z,4.12
2022-10-20T03:50:18.348Z,4.14
2022-10-20T03:52:47.060Z,4.09
2022-10-20T03:55:13.849Z,4.08
2022-10-20T03:57:40.348Z,3.99
2022-10-20T04:00:07.720Z,4.03
2022-10-20T04:02:44.061Z,4.03
2022-10-20T04:05:16.362Z,4.07
2022-10-20T04:07:43.236Z,4.08
2022-10-20T04:10:10.846Z,4.10
2022-10-20T04:12:38.226Z,4.11
2022-10-20T04:15:06.617Z,4.26
2022-10-20T04:17:33.663Z,4.19
2022-10-20T04:20:00.374Z,4.23
2022-10-20T04:22:27.014Z,4.26
2022-10-20T04:24:53.605Z,4.33
2022-10-20T04:27:20.411Z,4.50
2022-10-20T04:29:47.693Z,4.40
2022-10-20T04:32:14.763Z,4.40
2022-10-20T04:34:41.326Z,4.30
2022-10-20T04:37:08.014Z,4.28
2022-10-20T04:39:34.619Z,4.32
2022-10-20T04:42:01.185Z,4.42
2022-10-20T04:44:27.889Z,4.15
2022-10-20T04:46:56.229Z,4.15
2022-10-20T04:49:23.076Z,4.11
2022-10-20T04:51:49.698Z,3.97
2022-10-20T04:54:16.419Z,4.16
2022-10-20T04:56:43.071Z,4.25
2022-10-20T04:59:12.722Z,4.50
2022-10-20T05:01:40.904Z,4.48
2022-10-20T05:04:07.605Z,4.60
2022-10-20T05:06:34.426Z,4.57
2022-10-20T05:09:02.625Z,4.42
2022-10-20T05:11:30.792Z,4.59
2022-10-20T05:13:57.887Z,4.56
2022-10-20T05:16:25.045Z,4.43
2022-10-20T05:18:54.510Z,4.28
2022-10-20T05:21:24.157Z,4.31
2022-10-20T05:23:56.625Z,4.23
2022-10-20T05:26:24.523Z,4.09
2022-10-20T05:28:52.038Z,4.26
2022-10-20T05:31:22.311Z,4.16
2022-10-20T05:33:54.870Z,4.22
2022-10-20T05:36:26.841Z,3.57
2022-10-20T05:38:55.170Z,3.28
2022-10-20T05:41:27.584Z,3.55
2022-10-20T05:44:00.082Z,3.91
2022-10-20T05:46:29.047Z,3.97
2022-10-20T05:48:58.155Z,3.83
2022-10-20T05:51:30.845Z,3.82
2022-10-20T05:53:59.132Z,3.76
2022-10-20T05:56:27.116Z,3.79
2022-10-20T05:58:53.847Z,3.79
2022-10-20T06:01:39.200Z,3.86
2022-10-20T06:04:08.739Z,3.88
2022-10-20T06:06:36.170Z,3.92
2022-10-20T06:09:06.128Z,4.02
2022-10-20T06:11:37.115Z,4.11
2022-10-20T06:14:06.919Z,4.14
2022-10-20T06:16:33.878Z,4.19
2022-10-20T06:19:00.907Z,3.67
2022-10-20T06:21:30.977Z,3.33
2022-10-20T06:24:01.955Z,3.72
2022-10-20T06:26:32.907Z,4.30
2022-10-20T06:29:04.313Z,4.59
2022-10-20T06:31:51.576Z,4.83
2022-10-20T06:34:23.416Z,5.05
2022-10-20T06:36:50.497Z,5.24
2022-10-20T06:39:22.217Z,5.41
2022-10-20T06:41:50.906Z,5.28
2022-10-20T06:44:23.230Z,5.35
2022-10-20T06:46:52.402Z,5.82
2022-10-20T06:49:19.922Z,6.00
2022-10-20T06:51:46.643Z,5.77
2022-10-20T06:54:13.302Z,5.17
2022-10-20T06:56:41.030Z,4.82
2022-10-20T06:59:07.825Z,4.90
2022-10-20T07:01:38.637Z,4.83
2022-10-20T07:04:08.240Z,5.22
2022-10-20T07:06:38.631Z,5.74
2022-10-20T07:09:08.377Z,6.04
2022-10-20T07:11:36.382Z,6.17
2022-10-20T07:14:04.201Z,6.17
2022-10-20T07:16:33.151Z,5.78
2022-10-20T07:19:00.966Z,6.42
2022-10-20T07:21:32.529Z,7.01
2022-10-20T07:24:05.002Z,6.37
2022-10-20T07:26:34.769Z,6.81
2022-10-20T07:29:03.036Z,6.77
2022-10-20T07:31:31.771Z,6.95
2022-10-20T07:34:13.295Z,7.12
2022-10-20T07:36:46.227Z,7.67
2022-10-20T07:39:13.432Z,8.38
2022-10-20T07:41:40.641Z,8.49
2022-10-20T07:44:07.838Z,8.81
2022-10-20T07:46:35.873Z,8.76
2022-10-20T07:51:49.212Z,9.68
2022-10-20T07:54:15.771Z,9.59
2022-10-20T07:56:43.569Z,9.74
2022-10-20T07:59:11.477Z,9.99
2022-10-20T08:01:38.657Z,9.54
2022-10-20T08:04:05.411Z,10.10
2022-10-20T08:06:32.217Z,9.43
2022-10-20T08:09:00.196Z,9.36
2022-10-20T08:11:27.065Z,10.30
2022-10-20T08:13:53.719Z,9.79
2022-10-20T08:16:24.344Z,9.85
2022-10-20T08:18:54.758Z,9.87
2022-10-20T08:21:23.104Z,9.62
2022-10-20T08:23:49.962Z,9.75
2022-10-20T08:26:22.772Z,10.00
2022-10-20T08:28:50.496Z,10.31
2022-10-20T08:31:17.096Z,9.60
2022-10-20T08:33:43.806Z,9.75
2022-10-20T08:36:12.577Z,9.82
2022-10-20T08:38:40.382Z,10.92
2022-10-20T08:41:15.755Z,10.48
2022-10-20T08:43:43.104Z,9.84
2022-10-20T08:46:14.873Z,9.88
2022-10-20T08:48:42.494Z,10.74
2022-10-20T08:51:22.077Z,11.35
2022-10-20T08:53:51.918Z,10.98
2022-10-20T08:56:22.896Z,10.59
2022-10-20T08:58:49.978Z,11.24
2022-10-20T09:01:21.781Z,11.40
2022-10-20T09:03:57.028Z,11.37
2022-10-20T09:06:23.980Z,11.71
2022-10-20T09:08:51.475Z,10.77
2022-10-20T09:11:25.715Z,11.61
2022-10-20T09:13:53.685Z,11.99
2022-10-20T09:16:42.265Z,11.11
2022-10-20T09:19:23.414Z,11.38
2022-10-20T09:21:54.573Z,11.91
2022-10-20T09:24:25.496Z,11.55
2022-10-20T09:27:00.273Z,12.01
2022-10-20T09:29:38.841Z,12.35
2022-10-20T09:32:46.123Z,12.40
2022-10-20T09:35:19.491Z,12.62
2022-10-20T09:37:57.873Z,12.36
2022-10-20T09:40:26.500Z,12.69
2022-10-20T09:42:57.054Z,12.88
2022-10-20T09:45:28.854Z,12.33
2022-10-20T09:48:05.161Z,12.47
2022-10-20T09:50:41.146Z,12.53
2022-10-20T09:53:18.222Z,13.03
2022-10-20T09:55:50.474Z,12.50
2022-10-20T09:58:31.076Z,13.05
2022-10-20T10:01:14.750Z,12.99
2022-10-20T10:03:46.779Z,13.34
2022-10-20T10:06:43.345Z,13.11
2022-10-20T10:09:50.531Z,13.18
2022-10-20T10:12:19.599Z,13.45
2022-10-20T10:14:53.505Z,13.51
2022-10-20T10:17:29.879Z,13.69
2022-10-20T10:19:56.618Z,12.95
2022-10-20T10:22:23.555Z,13.27
2022-10-20T10:24:51.401Z,13.42
2022-10-20T10:27:32.927Z,13.48
2022-10-20T10:30:30.855Z,13.09
2022-10-20T10:32:57.855Z,13.63
2022-10-20T10:35:24.576Z,13.09
2022-10-20T10:37:52.466Z,14.11
2022-10-20T10:40:22.253Z,14.10
2022-10-20T10:43:15.910Z,14.62
2022-10-20T10:45:51.573Z,14.51
2022-10-20T10:48:40.814Z,14.69
2022-10-20T10:51:30.031Z,14.94
2022-10-20T10:54:02.268Z,14.83
2022-10-20T10:56:43.497Z,15.30
2022-10-20T10:59:32.914Z,15.29
2022-10-20T11:02:17.791Z,14.85
2022-10-20T11:05:19.925Z,15.23
2022-10-20T11:07:52.165Z,15.38
2022-10-20T11:10:31.858Z,15.60
2022-10-20T11:13:10.749Z,15.36
2022-10-20T11:15:46.676Z,15.56
2022-10-20T11:18:52.019Z,15.47
2022-10-20T11:21:34.053Z,15.29
2022-10-20T11:24:25.559Z,14.98
2022-10-20T11:27:01.651Z,14.92
2022-10-20T11:29:32.972Z,15.35
2022-10-20T11:32:14.267Z,15.49
2022-10-20T11:34:58.183Z,14.88
2022-10-20T11:37:30.393Z,15.38
2022-10-20T11:40:15.346Z,15.92
2022-10-20T11:42:50.360Z,15.22
2022-10-20T11:45:49.051Z,15.46
2022-10-20T11:48:19.116Z,15.70
2022-10-20T11:50:52.687Z,15.21
2022-10-20T11:53:36.068Z,14.34
2022-10-20T11:56:29.499Z,14.48
2022-10-20T11:59:26.766Z,15.52
2022-10-20T12:02:08.672Z,15.74
2022-10-20T12:04:45.205Z,15.15
2022-10-20T12:07:54.081Z,15.77
2022-10-20T12:10:27.615Z,16.25
2022-10-20T12:13:16.115Z,16.61
2022-10-20T12:15:48.624Z,16.09
2022-10-20T12:18:23.993Z,16.29
2022-10-20T12:21:02.252Z,16.32
2022-10-20T12:23:49.047Z,16.44
2022-10-20T12:26:32.983Z,16.88
2022-10-20T12:29:03.528Z,17.26
2022-10-20T12:32:07.656Z,17.09
2022-10-20T12:34:42.062Z,17.28
2022-10-20T12:37:20.496Z,17.23
2022-10-20T12:39:47.502Z,17.52
2022-10-20T12:42:22.162Z,17.29
2022-10-20T12:44:50.257Z,17.36
2022-10-20T12:47:22.567Z,17.68
2022-10-20T12:49:57.338Z,17.42
2022-10-20T12:52:29.768Z,17.32
2022-10-20T12:55:07.976Z,17.70
2022-10-20T12:57:42.532Z,17.35
2022-10-20T13:00:24.921Z,17.84
2022-10-20T13:03:00.101Z,18.06
2022-10-20T13:05:47.801Z,17.95
2022-10-20T13:08:20.337Z,17.61
2022-10-20T13:10:47.526Z,17.16
2022-10-20T13:13:20.482Z,17.63
2022-10-20T13:15:52.239Z,17.99
2022-10-20T13:18:33.894Z,18.17
2022-10-20T13:21:23.766Z,17.97
2022-10-20T13:24:03.468Z,17.77
2022-10-20T13:26:49.346Z,17.55
2022-10-20T13:29:21.244Z,17.65
2022-10-20T13:32:03.071Z,17.10
2022-10-20T13:35:07.239Z,17.52
2022-10-20T13:37:36.932Z,17.44
2022-10-20T13:40:03.542Z,17.80
2022-10-20T13:42:58.023Z,17.35
2022-10-20T13:45:29.971Z,17.99
2022-10-20T13:48:06.502Z,18.58
2022-10-20T13:50:38.584Z,17.90
2022-10-20T13:53:26.464Z,17.83
2022-10-20T13:56:03.095Z,17.90
2022-10-20T13:58:30.052Z,16.95
2022-10-20T14:01:17.015Z,17.66
2022-10-20T14:03:46.917Z,17.99
2022-10-20T14:06:32.121Z,18.22
2022-10-20T14:09:19.313Z,18.06
2022-10-20T14:12:01.198Z,18.06
2022-10-20T14:14:29.964Z,17.76
2022-10-20T14:17:00.109Z,17.53
2022-10-20T14:19:28.298Z,17.13
2022-10-20T14:21:57.739Z,17.25
2022-10-20T14:24:24.428Z,17.00
2022-10-20T14:26:52.212Z,16.94
2022-10-20T14:29:21.861Z,16.99
2022-10-20T14:31:48.929Z,17.06
2022-10-20T14:34:24.340Z,16.87
2022-10-20T14:36:53.962Z,16.58
2022-10-20T14:39:41.075Z,17.06
2022-10-20T14:42:23.723Z,17.32
2022-10-20T14:44:52.177Z,17.22
2022-10-20T14:47:20.604Z,16.98
2022-10-20T14:49:52.759Z,16.31
2022-10-20T14:52:21.790Z,16.67
2022-10-20T14:54:50.836Z,16.81
2022-10-20T14:57:17.388Z,16.91
2022-10-20T15:00:03.832Z,16.24
2022-10-20T15:02:41.657Z,16.39
2022-10-20T15:05:45.221Z,16.37
2022-10-20T15:08:17.733Z,16.33
2022-10-20T15:10:45.557Z,16.06
2022-10-20T15:13:33.354Z,15.87
2022-10-20T15:16:02.264Z,16.38
2022-10-20T15:18:29.819Z,16.28
2022-10-20T15:20:56.995Z,15.82
2022-10-20T15:23:29.265Z,15.11
2022-10-20T15:26:03.144Z,15.54
2022-10-20T15:28:40.517Z,15.79
2022-10-20T15:31:19.304Z,15.56
2022-10-20T15:33:46.282Z,15.37
2022-10-20T15:36:16.093Z,15.19
2022-10-20T15:38:43.550Z,15.12
2022-10-20T15:41:21.022Z,14.95
2022-10-20T15:43:47.783Z,14.85
2022-10-20T15:46:16.847Z,14.66
2022-10-20T15:48:44.036Z,14.00
2022-10-20T15:51:25.765Z,13.79
2022-10-20T15:53:52.661Z,13.19
2022-10-20T15:56:19.837Z,13.14
2022-10-20T15:58:46.767Z,13.29
2022-10-20T16:01:15.115Z,13.33
2022-10-20T16:03:43.365Z,13.17
2022-10-20T16:06:15.111Z,13.15
2022-10-20T16:08:46.706Z,12.91
2022-10-20T16:11:15.297Z,12.79
2022-10-20T16:13:42.140Z,12.85
2022-10-20T16:16:13.046Z,12.82
2022-10-20T16:18:39.814Z,12.64
2022-10-20T16:21:07.019Z,12.55
2022-10-20T16:23:42.145Z,12.54
2022-10-20T16:26:13.485Z,12.50
2022-10-20T16:28:41.890Z,12.41
2022-10-20T16:31:11.299Z,12.41
2022-10-20T16:33:38.551Z,12.32
2022-10-20T16:38:39.060Z,12.04
2022-10-20T16:41:10.271Z,11.86
2022-10-20T16:43:39.668Z,11.60
2022-10-20T16:46:08.046Z,11.50
2022-10-20T16:48:37.043Z,11.39
2022-10-20T16:51:10.403Z,11.31
2022-10-20T16:53:37.137Z,11.08
2022-10-20T16:56:04.306Z,11.22
2022-10-20T16:58:31.428Z,11.15
2022-10-20T17:01:06.416Z,10.52
2022-10-20T17:03:33.511Z,10.59
2022-10-20T17:06:03.283Z,10.45
2022-10-20T17:08:31.923Z,10.04
2022-10-20T17:11:00.779Z,10.24
2022-10-20T17:13:28.839Z,10.14
2022-10-20T17:15:56.605Z,10.09
2022-10-20T17:18:24.205Z,10.11
2022-10-20T17:20:55.592Z,10.17
2022-10-20T17:23:23.536Z,10.23
2022-10-20T17:25:51.987Z,10.25
2022-10-20T17:28:19.376Z,10.06
2022-10-20T17:30:47.961Z,10.22
2022-10-20T17:33:16.036Z,10.11
2022-10-20T17:35:48.498Z,9.81
2022-10-20T17:38:15.233Z,9.67
2022-10-20T17:40:42.099Z,9.64
2022-10-20T17:43:08.716Z,9.39
2022-10-20T17:45:38.095Z,9.01
2022-10-20T17:48:05.847Z,9.25
2022-10-20T17:50:32.632Z,9.67
2022-10-20T17:53:01.476Z,9.88
2022-10-20T17:55:32.817Z,9.91
2022-10-20T17:58:03.584Z,9.63
2022-10-20T18:00:51.515Z,9.41
2022-10-20T18:03:19.023Z,9.50
2022-10-20T18:05:45.611Z,9.52
2022-10-20T18:08:12.239Z,9.54
2022-10-20T18:10:43.806Z,9.95
2022-10-20T18:13:11.030Z,9.88
2022-10-20T18:15:43.807Z,9.71
2022-10-20T18:18:10.584Z,9.18
2022-10-20T18:20:37.292Z,8.66
2022-10-20T18:23:03.788Z,8.70
2022-10-20T18:25:35.648Z,8.75
2022-10-20T18:28:02.271Z,8.85
2022-10-20T18:30:28.846Z,8.86
2022-10-20T18:32:56.343Z,8.87
2022-10-20T18:35:23.485Z,8.97
2022-10-20T18:37:56.033Z,8.94
2022-10-20T18:40:22.779Z,8.99
2022-10-20T18:42:49.340Z,8.69
2022-10-20T18:45:16.347Z,8.54
2022-10-20T18:47:45.113Z,8.58
2022-10-20T18:50:11.873Z,8.72
2022-10-20T18:52:38.507Z,8.79
2022-10-20T18:55:06.446Z,8.78
2022-10-20T18:57:34.844Z,8.77
2022-10-20T19:00:01.807Z,8.64
2022-10-20T19:02:30.815Z,8.86
2022-10-20T19:04:58.179Z,8.71
2022-10-20T19:07:25.429Z,8.72
2022-10-20T19:09:55.446Z,8.80
2022-10-20T19:12:23.292Z,8.71
2022-10-20T19:14:53.285Z,8.72
2022-10-20T19:17:23.481Z,8.80
2022-10-20T19:19:50.535Z,8.72
2022-10-20T19:22:17.510Z,8.81
2022-10-20T19:24:45.184Z,8.63
2022-10-20T19:27:26.108Z,8.45
2022-10-20T19:29:55.892Z,8.29
2022-10-20T19:32:23.528Z,8.34
2022-10-20T19:34:50.206Z,8.23
2022-10-20T19:37:16.848Z,8.13
2022-10-20T19:39:44.250Z,8.09
2022-10-20T19:42:11.728Z,8.15
2022-10-20T19:44:38.518Z,8.28
2022-10-20T19:47:06.213Z,8.28
2022-10-20T19:49:32.941Z,8.24
2022-10-20T19:52:00.069Z,8.14
2022-10-20T19:54:27.162Z,8.18
2022-10-20T19:56:53.871Z,7.90
2022-10-20T19:59:20.517Z,7.81
2022-10-20T20:01:49.610Z,8.15
2022-10-20T20:04:16.199Z,8.24
2022-10-20T20:06:42.919Z,8.18
2022-10-20T20:09:12.006Z,8.43
2022-10-20T20:11:39.016Z,8.32
2022-10-20T20:14:15.334Z,8.27
2022-10-20T20:19:12.273Z,8.33
2022-10-20T20:21:39.038Z,8.13
2022-10-20T20:24:05.952Z,8.00
2022-10-20T20:26:36.117Z,8.03
2022-10-20T20:29:03.967Z,8.06
2022-10-20T20:31:30.652Z,8.06
2022-10-20T20:33:57.722Z,8.09
2022-10-20T20:36:28.962Z,7.98
2022-10-20T20:38:58.091Z,7.88
2022-10-20T20:41:26.830Z,7.69
2022-10-20T20:43:54.015Z,7.82
2022-10-20T20:46:22.939Z,7.83
2022-10-20T20:48:50.322Z,7.74
2022-10-20T20:51:17.588Z,7.92
2022-10-20T20:53:44.523Z,7.87
2022-10-20T20:56:13.632Z,8.06
2022-10-20T20:58:41.979Z,8.36
2022-10-20T21:01:13.735Z,8.45
2022-10-20T21:03:40.809Z,8.58
2022-10-20T21:06:10.660Z,8.81
2022-10-20T21:08:38.749Z,8.94
2022-10-20T21:11:09.652Z,8.73
2022-10-20T21:13:37.240Z,8.66
2022-10-20T21:16:13.939Z,8.44
2022-10-20T21:18:42.838Z,8.39
2022-10-20T21:21:14.939Z,8.37
2022-10-20T21:23:42.222Z,8.32
2022-10-20T21:26:10.531Z,8.30
2022-10-20T21:28:37.755Z,8.23
2022-10-20T21:31:07.808Z,8.26
2022-10-20T21:33:35.722Z,8.20
2022-10-20T21:36:05.306Z,7.78
2022-10-20T21:38:33.667Z,7.55
2022-10-20T21:41:11.415Z,7.89
2022-10-20T21:43:40.422Z,7.82
2022-10-20T21:46:15.179Z,7.77
2022-10-20T21:48:44.136Z,7.54
2022-10-20T21:51:25.906Z,7.46
2022-10-20T21:53:59.758Z,6.94
2022-10-20T21:56:26.899Z,6.55
2022-10-20T21:58:54.061Z,6.91
2022-10-20T22:01:23.417Z,7.18
2022-10-20T22:03:51.131Z,7.40
2022-10-20T22:06:19.663Z,7.31
2022-10-20T22:08:49.594Z,7.67
2022-10-20T22:11:19.595Z,7.57
2022-10-20T22:13:47.531Z,7.61
2022-10-20T22:16:17.614Z,7.45
2022-10-20T22:18:45.101Z,7.42
2022-10-20T22:21:17.586Z,7.33
2022-10-20T22:23:45.238Z,7.01
2022-10-20T22:26:12.678Z,7.44
2022-10-20T22:28:40.188Z,7.31
2022-10-20T22:31:07.403Z,7.09
2022-10-20T22:33:34.569Z,7.17
2022-10-20T22:36:01.424Z,7.27
2022-10-20T22:38:28.059Z,7.47
2022-10-20T22:40:59.619Z,6.99
2022-10-20T22:43:27.541Z,7.51
2022-10-20T22:45:57.939Z,7.66
2022-10-20T22:48:24.944Z,7.74
2022-10-20T22:50:51.672Z,7.93
2022-10-20T22:53:18.132Z,7.95
2022-10-20T22:55:44.871Z,8.01
2022-10-20T22:58:11.507Z,8.13
2022-10-20T23:00:39.965Z,8.12
2022-10-20T23:03:06.930Z,7.77
2022-10-20T23:05:33.506Z,7.74
2022-10-20T23:08:00.204Z,7.61
2022-10-20T23:10:26.878Z,7.61
2022-10-20T23:12:53.527Z,7.63
2022-10-20T23:15:20.475Z,7.61
2022-10-20T23:17:47.143Z,7.56
2022-10-20T23:20:13.807Z,7.46
2022-10-20T23:22:40.704Z,7.50
2022-10-20T23:25:07.716Z,7.54
2022-10-20T23:27:35.599Z,7.17
2022-10-20T23:30:02.542Z,5.98
2022-10-20T23:32:29.099Z,6.30
2022-10-20T23:34:55.670Z,7.15
2022-10-20T23:37:23.701Z,7.05
2022-10-20T23:39:50.589Z,6.80
2022-10-20T23:42:17.412Z,6.66
2022-10-20T23:44:44.087Z,6.99
2022-10-20T23:47:10.564Z,7.05
2022-10-20T23:49:37.153Z,7.17
2022-10-20T23:52:04.231Z,7.13
2022-10-20T23:54:30.845Z,6.53
2022-10-20T23:56:57.818Z,6.94
2022-10-20T23:59:24.378Z,6.91
